Lake Fork, ID (83635)

3:57 PM MST on February 13, 2016 (GMT -0700)
McCall | | Change Station
CLOSE
Current Station
Airport
Location: McCall,
Elevation: 5020 ft
Nearby Weather Stations

Elev 5020 ft 44.89 °N, 116.10 °W | Updated 6 minutes ago

Overcast
Overcast
35 °F
Feels Like 31 °F
N
5
Wind Variable Wind from South

Today
High -- | Low -- °F
--% Chance of Precip.
Yesterday
High -- | Low -- °F
Precip. -- in
Pressure 30.28 in
Visibility 10.0 miles
Clouds Scattered Clouds 4700 ft
Overcast 9500 ft
Windchill 31 °F
Dew Point 22 °F
Humidity 59%
Rainfall 0.00 in
Snow Depth Not available.
7:48 AM 6:09 PM
Waxing Crescent, 35% visible
METAR KMYL 132251Z AUTO 19004KT 10SM SCT047 OVC095 02/M06 A3022 RMK AO2 SLP253 T00171056
Pressure 30.28 in
Visibility 10.0 miles
Clouds Scattered Clouds 4700 ft
Overcast 9500 ft
Windchill 31 °F
Dew Point 22 °F
Humidity 59%
Rainfall 0.00 in
Snow Depth Not available.
7:48 AM 6:09 PM
Waxing Crescent, 35% visible
METAR KMYL 132251Z AUTO 19004KT 10SM SCT047 OVC095 02/M06 A3022 RMK AO2 SLP253 T00171056

10-Day Weather Forecast

Almanac

Astronomy

Feb. 13, 2016 Rise Set
Actual Time
Civil Twilight
Nautical Twilight
Astronomical Twilight
Moon
Length of Visible Light
Length of Day
Tomorrow will be .
, % of the Moon is Illuminated

Today's Extremes

State Highs State Lows

Community

WunderPhotos

Upload Photos

1,892,689 photos uploaded!

WunderBlog® & News

Nearby

Air Quality

  Air Quality AQ Index Pollutant
Not available.

Snow Depth

Station Depth Elevation

Earthquake Activity

City Distance Mag. Time & Date
Minimum magnitude displayed is 2.5.

Coastal Water Temperatures

Place Temperature

Stations

Nearby Weather Stations

Station Location Temp. Windchill Dew Point Humidity Wind Precip. Elev Updated Type
                   

Watches & Warnings

There are currently no watches in effect.